Lake Fork, Illinois
Current Conditions -  °F | °C
As of 1:55 AM on Friday 31 Oct 2014 (Local Time) from KAAA Reporting Station
Overcast Overcast  
Wind Chill: 45°   Ceiling: 6500
Heat Index: 45°   Visibility: 7mi
Dew Point: 42°   Wind: 0mph
Humidity: 91%   Direction: NA
Pressure: 30.08"   Gusts: NA
Location:  39.97°N, 89.35°W
Report Text: KAAA 310655Z AUTO 00000KT 7SM OVC065 07/06 A3008 RMK AO2 T00700056
Loading
Personal Weather Stations






























Interactive Weather Map New forecast layout! Learn more

10-Day Weather Forecast

Advertisements
Track Severe Weather on mobile